Janet — 9HSL8 — position and weather

sailwx.info

Track history (hours):
 
Tides and Currents Weather Stations Pressure Air Temp Water Temp Dewpoint Dewpoint Depression Visibility Wind Speed Wind Dir Waves Ship Positions

Janet

Last reported at 2015-Feb-01 08:29 UTC. Time now 2015-Feb-01 08:43 UTC.
Position N 55°53' W 004°24'.

Length 90 m; draft 3.5 m.

Type: Cargo ship. MMSI: 256371000.

Date/timePositionNaut miles runAvg speedWind from/ knotsBaromVisibWave heightAir tempDewpointWater temp
2015-Feb-01 08:29N 55°53' W 004°24'0 0.0
2015-Feb-01 07:29N 55°53' W 004°24'0 0.0
2015-Feb-01 06:32N 55°53' W 004°24'0 0.0
2015-Feb-01 05:22N 55°53' W 004°24'0 0.0
2015-Feb-01 04:32N 55°53' W 004°24'0 0.0
2015-Feb-01 03:27N 55°53' W 004°24'0 0.0
2015-Feb-01 02:33N 55°53' W 004°24'0 0.0
2015-Feb-01 01:33N 55°53' W 004°24'0 0.0
2015-Feb-01 00:33N 55°53' W 004°24'0 0.0
2015-Jan-31 23:33N 55°53' W 004°24'0 0.0
2015-Jan-31 22:33N 55°53' W 004°24'0 0.0
2015-Jan-31 21:33N 55°53' W 004°24'0 0.0
2015-Jan-31 20:33N 55°53' W 004°24'0 0.0
2015-Jan-31 19:33N 55°53' W 004°24'0 0.0
2015-Jan-31 18:31N 55°53' W 004°24'0 0.0
2015-Jan-31 17:31N 55°53' W 004°24'0 0.0
2015-Jan-31 16:31N 55°53' W 004°24'0 0.0
2015-Jan-31 15:31N 55°53' W 004°24'0 0.0
2015-Jan-31 14:31N 55°53' W 004°24'0 0.0
2015-Jan-31 13:31N 55°53' W 004°24'0 0.0
2015-Jan-31 12:31N 55°53' W 004°24'0 0.0
2015-Jan-31 11:31N 55°53' W 004°24'0 0.0
2015-Jan-31 10:28N 55°53' W 004°24'0 0.0
2015-Jan-31 09:28N 55°53' W 004°24'0 0.0
2015-Jan-31 08:31N 55°53' W 004°24'0 0.0
2015-Jan-31 07:25N 55°53' W 004°24'0 0.0
2015-Jan-31 06:31N 55°53' W 004°24'0 0.0
2015-Jan-31 05:31N 55°53' W 004°24'0 0.0
2015-Jan-31 04:28N 55°53' W 004°24'0 0.0
2015-Jan-31 03:31N 55°53' W 004°24'0 0.0
2015-Jan-31 02:31N 55°53' W 004°24'0 0.0
2015-Jan-31 01:31N 55°53' W 004°24'0 0.0
2015-Jan-31 00:31N 55°53' W 004°24'0 0.0
2015-Jan-30 23:13N 55°53' W 004°24'0 0.0
2015-Jan-30 22:28N 55°53' W 004°24'0 0.0
2015-Jan-30 21:31N 55°53' W 004°24'1 0.9
2015-Jan-30 20:33N 55°54' W 004°25'9 9.1
2015-Jan-30 19:33N 55°56' W 004°40'6 6.0
2015-Jan-30 18:34N 55°58' W 004°51'0 0.3
2015-Jan-30 17:31N 55°59' W 004°51'0 0.2
2015-Jan-30 16:31N 55°59' W 004°51'0 0.0
2015-Jan-30 15:31N 55°59' W 004°51'0 0.0
2015-Jan-30 14:31N 55°59' W 004°51'0 0.1
2015-Jan-30 13:31N 55°59' W 004°51'0 0.1
2015-Jan-30 12:31N 55°59' W 004°50'0 0.0
2015-Jan-30 11:31N 55°59' W 004°50'0 0.0
2015-Jan-30 10:31N 55°59' W 004°50'4 4.5
2015-Jan-30 09:34N 55°55' W 004°55'1010.0
2015-Jan-30 08:33N 55°45' W 004°59'50 9.9
2015-Jan-30 03:28N 54°56' W 005°15'10 9.2
2015-Jan-30 02:25N 54°47' W 005°08'910.0
2015-Jan-30 01:32N 54°39' W 005°01'  
2015-Jan-27 20:19N 54°11' W 003°58'1211.0
2015-Jan-27 19:15N 54°01' W 003°48'811.2
2015-Jan-27 18:33N 53°54' W 003°42'1111.2
2015-Jan-27 17:33N 53°44' W 003°32'1310.9
2015-Jan-27 16:22N 53°34' W 003°20'8 9.2
2015-Jan-27 15:33N 53°31' W 003°07'7 6.6
2015-Jan-27 14:33N 53°26' W 003°01'0 0.2
2015-Jan-27 13:33N 53°27' W 003°01'0 0.2
2015-Jan-27 12:22N 53°27' W 003°01'0 0.0
2015-Jan-27 11:22N 53°27' W 003°01'0 0.0
2015-Jan-27 10:28N 53°27' W 003°01'0 0.0
2015-Jan-27 09:16N 53°27' W 003°01'0 0.0
2015-Jan-27 08:22N 53°27' W 003°01'0 0.0
2015-Jan-27 07:22N 53°27' W 003°01'0 0.0
2015-Jan-27 06:28N 53°27' W 003°01'0 0.0
2015-Jan-27 05:28N 53°27' W 003°01'0 0.0
2015-Jan-27 04:28N 53°27' W 003°01'0 0.0
2015-Jan-27 03:28N 53°27' W 003°01'0 0.0
2015-Jan-27 02:22N 53°27' W 003°01'0 0.0
2015-Jan-27 01:28N 53°27' W 003°01'0 0.0
2015-Jan-27 00:28N 53°27' W 003°01'0 0.0
2015-Jan-26 23:28N 53°27' W 003°01'0 0.0
2015-Jan-26 22:22N 53°27' W 003°01'0 0.0
2015-Jan-26 21:28N 53°27' W 003°01'0 0.0
2015-Jan-26 20:28N 53°27' W 003°01'0 0.0
2015-Jan-26 19:28N 53°27' W 003°01'0 0.0
2015-Jan-26 18:28N 53°27' W 003°01'0 0.0
2015-Jan-26 17:16N 53°27' W 003°01'0 0.0
2015-Jan-26 16:28N 53°27' W 003°01'0 0.0
2015-Jan-26 15:28N 53°27' W 003°01'0 0.0
2015-Jan-26 14:28N 53°27' W 003°01'0 0.0
2015-Jan-26 13:28N 53°27' W 003°01'0 0.0
2015-Jan-26 12:28N 53°27' W 003°01'0 0.0
2015-Jan-26 11:22N 53°27' W 003°01'0 0.0
2015-Jan-26 10:28N 53°27' W 003°01'0 0.0
2015-Jan-26 09:22N 53°27' W 003°01'0 0.0
2015-Jan-26 08:28N 53°27' W 003°01'0 0.0
2015-Jan-26 07:28N 53°27' W 003°01'0 0.0
2015-Jan-26 06:28N 53°27' W 003°01'0 0.0
2015-Jan-26 05:28N 53°27' W 003°01'0 0.0
2015-Jan-26 04:28N 53°27' W 003°01'0 0.0
2015-Jan-26 03:28N 53°27' W 003°01'0 0.0
2015-Jan-26 02:28N 53°27' W 003°01'0 0.0
2015-Jan-26 01:28N 53°27' W 003°01'0 0.0
2015-Jan-26 00:28N 53°27' W 003°01'0 0.0
2015-Jan-25 23:28N 53°27' W 003°01'0 0.0
2015-Jan-25 22:28N 53°27' W 003°01'0 0.0
2015-Jan-25 21:28N 53°27' W 003°01'0 0.0
2015-Jan-25 20:28N 53°27' W 003°01'0 0.0
2015-Jan-25 19:28N 53°27' W 003°01'0 0.0
2015-Jan-25 18:28N 53°27' W 003°01'0 0.0
2015-Jan-25 17:16N 53°27' W 003°01'0 0.0
2015-Jan-25 16:28N 53°27' W 003°01'0 0.0
2015-Jan-25 15:22N 53°27' W 003°01'0 0.0
2015-Jan-25 14:28N 53°27' W 003°01'0 0.0
2015-Jan-25 13:28N 53°27' W 003°01'0 0.0
2015-Jan-25 12:22N 53°27' W 003°01'0 0.0
2015-Jan-25 11:22N 53°27' W 003°01'0 0.0
2015-Jan-25 10:22N 53°27' W 003°01'0 0.0
2015-Jan-25 09:28N 53°27' W 003°01'0 0.0
2015-Jan-25 08:22N 53°27' W 003°01'0 0.5
2015-Jan-25 07:33N 53°26' W 003°01'0 0.2
2015-Jan-25 06:33N 53°26' W 003°01'6 5.6
2015-Jan-25 05:33N 53°31' W 003°07'8 8.3
2015-Jan-25 04:33N 53°32' W 003°21'  
Track history (hours):
 
Tides and Currents Weather Stations Pressure Air Temp Water Temp Dewpoint Dewpoint Depression Visibility Wind Speed Wind Dir Waves Ship Positions

Janet

Last reported at 2015-Feb-01 08:29 UTC. Time now 2015-Feb-01 08:43 UTC.
Position N 55°53' W 004°24'.

Length 90 m; draft 3.5 m.

Type: Cargo ship. MMSI: 256371000.

Date/timePositionNaut miles runAvg speedWind from/ knotsBaromVisibWave heightAir tempDewpointWater temp
2015-Feb-01 08:29N 55°53' W 004°24'0 0.0
2015-Feb-01 07:29N 55°53' W 004°24'0 0.0
2015-Feb-01 06:32N 55°53' W 004°24'0 0.0
2015-Feb-01 05:22N 55°53' W 004°24'0 0.0
2015-Feb-01 04:32N 55°53' W 004°24'0 0.0
2015-Feb-01 03:27N 55°53' W 004°24'0 0.0
2015-Feb-01 02:33N 55°53' W 004°24'0 0.0
2015-Feb-01 01:33N 55°53' W 004°24'0 0.0
2015-Feb-01 00:33N 55°53' W 004°24'0 0.0
2015-Jan-31 23:33N 55°53' W 004°24'0 0.0
2015-Jan-31 22:33N 55°53' W 004°24'0 0.0
2015-Jan-31 21:33N 55°53' W 004°24'0 0.0
2015-Jan-31 20:33N 55°53' W 004°24'0 0.0
2015-Jan-31 19:33N 55°53' W 004°24'0 0.0
2015-Jan-31 18:31N 55°53' W 004°24'0 0.0
2015-Jan-31 17:31N 55°53' W 004°24'0 0.0
2015-Jan-31 16:31N 55°53' W 004°24'0 0.0
2015-Jan-31 15:31N 55°53' W 004°24'0 0.0
2015-Jan-31 14:31N 55°53' W 004°24'0 0.0
2015-Jan-31 13:31N 55°53' W 004°24'0 0.0
2015-Jan-31 12:31N 55°53' W 004°24'0 0.0
2015-Jan-31 11:31N 55°53' W 004°24'0 0.0
2015-Jan-31 10:28N 55°53' W 004°24'0 0.0
2015-Jan-31 09:28N 55°53' W 004°24'0 0.0
2015-Jan-31 08:31N 55°53' W 004°24'0 0.0
2015-Jan-31 07:25N 55°53' W 004°24'0 0.0
2015-Jan-31 06:31N 55°53' W 004°24'0 0.0
2015-Jan-31 05:31N 55°53' W 004°24'0 0.0
2015-Jan-31 04:28N 55°53' W 004°24'0 0.0
2015-Jan-31 03:31N 55°53' W 004°24'0 0.0
2015-Jan-31 02:31N 55°53' W 004°24'0 0.0
2015-Jan-31 01:31N 55°53' W 004°24'0 0.0
2015-Jan-31 00:31N 55°53' W 004°24'0 0.0
2015-Jan-30 23:13N 55°53' W 004°24'0 0.0
2015-Jan-30 22:28N 55°53' W 004°24'0 0.0
2015-Jan-30 21:31N 55°53' W 004°24'1 0.9
2015-Jan-30 20:33N 55°54' W 004°25'9 9.1
2015-Jan-30 19:33N 55°56' W 004°40'6 6.0
2015-Jan-30 18:34N 55°58' W 004°51'0 0.3
2015-Jan-30 17:31N 55°59' W 004°51'0 0.2
2015-Jan-30 16:31N 55°59' W 004°51'0 0.0
2015-Jan-30 15:31N 55°59' W 004°51'0 0.0
2015-Jan-30 14:31N 55°59' W 004°51'0 0.1
2015-Jan-30 13:31N 55°59' W 004°51'0 0.1
2015-Jan-30 12:31N 55°59' W 004°50'0 0.0
2015-Jan-30 11:31N 55°59' W 004°50'0 0.0
2015-Jan-30 10:31N 55°59' W 004°50'4 4.5
2015-Jan-30 09:34N 55°55' W 004°55'1010.0
2015-Jan-30 08:33N 55°45' W 004°59'50 9.9
2015-Jan-30 03:28N 54°56' W 005°15'10 9.2
2015-Jan-30 02:25N 54°47' W 005°08'910.0
2015-Jan-30 01:32N 54°39' W 005°01'  
2015-Jan-27 20:19N 54°11' W 003°58'1211.0
2015-Jan-27 19:15N 54°01' W 003°48'811.2
2015-Jan-27 18:33N 53°54' W 003°42'1111.2
2015-Jan-27 17:33N 53°44' W 003°32'1310.9
2015-Jan-27 16:22N 53°34' W 003°20'8 9.2
2015-Jan-27 15:33N 53°31' W 003°07'7 6.6
2015-Jan-27 14:33N 53°26' W 003°01'0 0.2
2015-Jan-27 13:33N 53°27' W 003°01'0 0.2
2015-Jan-27 12:22N 53°27' W 003°01'0 0.0
2015-Jan-27 11:22N 53°27' W 003°01'0 0.0
2015-Jan-27 10:28N 53°27' W 003°01'0 0.0
2015-Jan-27 09:16N 53°27' W 003°01'0 0.0
2015-Jan-27 08:22N 53°27' W 003°01'0 0.0
2015-Jan-27 07:22N 53°27' W 003°01'0 0.0
2015-Jan-27 06:28N 53°27' W 003°01'0 0.0
2015-Jan-27 05:28N 53°27' W 003°01'0 0.0
2015-Jan-27 04:28N 53°27' W 003°01'0 0.0
2015-Jan-27 03:28N 53°27' W 003°01'0 0.0
2015-Jan-27 02:22N 53°27' W 003°01'0 0.0
2015-Jan-27 01:28N 53°27' W 003°01'0 0.0
2015-Jan-27 00:28N 53°27' W 003°01'0 0.0
2015-Jan-26 23:28N 53°27' W 003°01'0 0.0
2015-Jan-26 22:22N 53°27' W 003°01'0 0.0
2015-Jan-26 21:28N 53°27' W 003°01'0 0.0
2015-Jan-26 20:28N 53°27' W 003°01'0 0.0
2015-Jan-26 19:28N 53°27' W 003°01'0 0.0
2015-Jan-26 18:28N 53°27' W 003°01'0 0.0
2015-Jan-26 17:16N 53°27' W 003°01'0 0.0
2015-Jan-26 16:28N 53°27' W 003°01'0 0.0
2015-Jan-26 15:28N 53°27' W 003°01'0 0.0
2015-Jan-26 14:28N 53°27' W 003°01'0 0.0
2015-Jan-26 13:28N 53°27' W 003°01'0 0.0
2015-Jan-26 12:28N 53°27' W 003°01'0 0.0
2015-Jan-26 11:22N 53°27' W 003°01'0 0.0
2015-Jan-26 10:28N 53°27' W 003°01'0 0.0
2015-Jan-26 09:22N 53°27' W 003°01'0 0.0
2015-Jan-26 08:28N 53°27' W 003°01'0 0.0
2015-Jan-26 07:28N 53°27' W 003°01'0 0.0
2015-Jan-26 06:28N 53°27' W 003°01'0 0.0
2015-Jan-26 05:28N 53°27' W 003°01'0 0.0
2015-Jan-26 04:28N 53°27' W 003°01'0 0.0
2015-Jan-26 03:28N 53°27' W 003°01'0 0.0
2015-Jan-26 02:28N 53°27' W 003°01'0 0.0
2015-Jan-26 01:28N 53°27' W 003°01'0 0.0
2015-Jan-26 00:28N 53°27' W 003°01'0 0.0
2015-Jan-25 23:28N 53°27' W 003°01'0 0.0
2015-Jan-25 22:28N 53°27' W 003°01'0 0.0
2015-Jan-25 21:28N 53°27' W 003°01'0 0.0
2015-Jan-25 20:28N 53°27' W 003°01'0 0.0
2015-Jan-25 19:28N 53°27' W 003°01'0 0.0
2015-Jan-25 18:28N 53°27' W 003°01'0 0.0
2015-Jan-25 17:16N 53°27' W 003°01'0 0.0
2015-Jan-25 16:28N 53°27' W 003°01'0 0.0
2015-Jan-25 15:22N 53°27' W 003°01'0 0.0
2015-Jan-25 14:28N 53°27' W 003°01'0 0.0
2015-Jan-25 13:28N 53°27' W 003°01'0 0.0
2015-Jan-25 12:22N 53°27' W 003°01'0 0.0
2015-Jan-25 11:22N 53°27' W 003°01'0 0.0
2015-Jan-25 10:22N 53°27' W 003°01'0 0.0
2015-Jan-25 09:28N 53°27' W 003°01'0 0.0
2015-Jan-25 08:22N 53°27' W 003°01'0 0.5
2015-Jan-25 07:33N 53°26' W 003°01'0 0.2
2015-Jan-25 06:33N 53°26' W 003°01'6 5.6
2015-Jan-25 05:33N 53°31' W 003°07'8 8.3
2015-Jan-25 04:33N 53°32' W 003°21'  

Dump ship's entire track history